Time;durP1;ratioP1;P1;durP2;ratioP2;P2;SDS_P1;SDS_P2;PMS_P1;PMS_P2;Temp;Humidity;BMP_temperature;BMP_pressure;BME280_temperature;BME280_humidity;BME280_pressure;Samples;Min_cycle;Max_cycle;Signal;HPM_P1;HPM_P2
2023/01/07 00:02:22;;;;;;;3.28;1.85;;;;;;;;;;6192974;23;20009;-88
2023/01/07 00:04:49;;;;;;;3.30;1.83;;;;;;;;;;6190848;23;20043;-88
2023/01/07 00:07:15;;;;;;;4.30;2.80;;;;;;;;;;6190128;23;20004;-88
2023/01/07 00:09:44;;;;;;;5.00;3.05;;;;;;;;;;6188866;23;20001;-93
2023/01/07 00:12:10;;;;;;;4.07;2.42;;;;;;;;;;6192573;23;20005;-88
2023/01/07 00:14:36;;;;;;;2.80;1.58;;;;;;;;;;6191562;23;20000;-86
2023/01/07 00:17:03;;;;;;;2.45;1.30;;;;;;;;;;6217096;23;20047;-87
2023/01/07 00:19:30;;;;;;;2.70;1.50;;;;;;;;;;6190710;23;20028;-88
2023/01/07 00:21:56;;;;;;;3.17;1.58;;;;;;;;;;6192252;23;20047;-88
2023/01/07 00:24:28;;;;;;;4.30;1.80;;;;;;;;;;6190543;23;20460;-86
2023/01/07 00:26:54;;;;;;;2.85;1.70;;;;;;;;;;6191849;23;20005;-89
2023/01/07 00:29:20;;;;;;;3.25;1.52;;;;;;;;;;6191729;23;20343;-87
2023/01/07 00:31:47;;;;;;;3.15;1.70;;;;;;;;;;6191042;23;20004;-90
2023/01/07 00:34:13;;;;;;;3.28;1.50;;;;;;;;;;6191997;23;20013;-87
2023/01/07 00:36:48;;;;;;;4.03;1.60;;;;;;;;;;6192004;23;20016;-88
2023/01/07 00:39:25;;;;;;;2.90;1.60;;;;;;;;;;6190001;23;20008;-88
2023/01/07 00:44:36;;;;;;;2.63;1.50;;;;;;;;;;6221289;23;20019;-89
2023/01/07 00:47:02;;;;;;;4.38;1.98;;;;;;;;;;6193335;23;20055;-89
2023/01/07 00:49:30;;;;;;;2.75;1.60;;;;;;;;;;6199281;23;20007;-88
2023/01/07 00:51:56;;;;;;;3.22;1.70;;;;;;;;;;6195268;23;20051;-89
2023/01/07 00:54:28;;;;;;;3.60;1.90;;;;;;;;;;6169347;23;20008;-88
2023/01/07 00:59:30;;;;;;;3.92;2.42;;;;;;;;;;6219093;22;20352;-87
2023/01/07 01:01:56;;;;;;;5.28;2.40;;;;;;;;;;6193915;23;20083;-88
2023/01/07 01:04:23;;;;;;;2.88;1.70;;;;;;;;;;6196386;23;20030;-87
2023/01/07 01:06:52;;;;;;;2.92;1.50;;;;;;;;;;6198818;22;20019;-89
2023/01/07 01:09:24;;;;;;;4.05;2.10;;;;;;;;;;6193806;23;20020;-90
2023/01/07 01:11:50;;;;;;;4.07;1.80;;;;;;;;;;6212759;22;20013;-91
2023/01/07 01:14:16;;;;;;;3.53;1.73;;;;;;;;;;6208568;23;20005;-88
2023/01/07 01:16:42;;;;;;;5.40;3.10;;;;;;;;;;6198357;23;20050;-90
2023/01/07 01:19:08;;;;;;;6.00;2.75;;;;;;;;;;6192266;23;20059;-89
2023/01/07 01:21:34;;;;;;;4.10;2.10;;;;;;;;;;6193012;23;20007;-87
2023/01/07 01:24:00;;;;;;;3.20;1.65;;;;;;;;;;6229361;22;20020;-89
2023/01/07 01:26:27;;;;;;;2.55;1.45;;;;;;;;;;6224052;23;20016;-89
2023/01/07 01:28:53;;;;;;;3.25;1.60;;;;;;;;;;6227148;23;20004;-90
2023/01/07 01:31:19;;;;;;;2.67;1.40;;;;;;;;;;6231831;23;19992;-90
2023/01/07 01:33:45;;;;;;;3.05;1.60;;;;;;;;;;6240152;23;20020;-90
2023/01/07 01:39:34;;;;;;;3.45;1.40;;;;;;;;;;6102988;23;20022;-90
2023/01/07 01:42:00;;;;;;;3.78;1.50;;;;;;;;;;6127161;23;20874;-87
2023/01/07 01:47:05;;;;;;;2.78;1.38;;;;;;;;;;6214043;23;20086;-88
2023/01/07 01:49:36;;;;;;;2.72;1.23;;;;;;;;;;6196569;23;20333;-87
2023/01/07 01:52:05;;;;;;;3.65;1.20;;;;;;;;;;6187063;23;20033;-88
2023/01/07 01:54:35;;;;;;;2.30;1.38;;;;;;;;;;6168180;23;20061;-88
2023/01/07 01:57:05;;;;;;;2.38;1.40;;;;;;;;;;6167767;23;20063;-88
2023/01/07 01:59:33;;;;;;;1.98;1.17;;;;;;;;;;6164005;23;20095;-86
2023/01/07 02:02:00;;;;;;;2.78;1.05;;;;;;;;;;6164854;23;20072;-89
2023/01/07 02:04:36;;;;;;;2.63;1.30;;;;;;;;;;6163393;23;20012;-89
2023/01/07 02:07:09;;;;;;;2.15;1.30;;;;;;;;;;6164595;23;20011;-87
2023/01/07 02:09:35;;;;;;;3.03;1.30;;;;;;;;;;6167760;23;20041;-89
2023/01/07 02:12:09;;;;;;;3.15;1.60;;;;;;;;;;6169798;23;20016;-89
2023/01/07 02:15:00;;;;;;;4.93;1.80;;;;;;;;;;6169754;23;20015;-87
2023/01/07 02:17:32;;;;;;;2.63;1.60;;;;;;;;;;6171288;23;20104;-88
2023/01/07 02:20:17;;;;;;;2.85;1.60;;;;;;;;;;6166078;23;20376;-88
2023/01/07 02:23:02;;;;;;;3.42;1.58;;;;;;;;;;6214825;23;20043;-88
2023/01/07 02:25:43;;;;;;;2.83;1.60;;;;;;;;;;6225976;23;20024;-88
2023/01/07 02:28:15;;;;;;;3.60;1.88;;;;;;;;;;6229209;23;20015;-88
2023/01/07 02:31:01;;;;;;;2.92;1.50;;;;;;;;;;6228905;23;20011;-88
2023/01/07 02:33:46;;;;;;;2.47;1.48;;;;;;;;;;6222328;23;20308;-89
2023/01/07 02:36:24;;;;;;;3.70;1.58;;;;;;;;;;6223361;23;20050;-88
2023/01/07 02:38:55;;;;;;;3.15;1.40;;;;;;;;;;6224396;23;20382;-88
2023/01/07 02:41:40;;;;;;;3.83;1.77;;;;;;;;;;6223458;23;20160;-88
2023/01/07 02:44:25;;;;;;;3.05;1.73;;;;;;;;;;6227340;23;20011;-89
2023/01/07 02:46:54;;;;;;;3.50;1.63;;;;;;;;;;6229466;23;20493;-88
2023/01/07 02:49:20;;;;;;;2.60;1.67;;;;;;;;;;6225593;23;20015;-89
2023/01/07 02:51:46;;;;;;;3.50;2.00;;;;;;;;;;6222847;22;20468;-87
2023/01/07 02:54:19;;;;;;;3.30;2.05;;;;;;;;;;6224384;23;20442;-88
2023/01/07 02:56:51;;;;;;;3.87;2.40;;;;;;;;;;6223472;23;20004;-89
2023/01/07 02:59:26;;;;;;;3.95;2.42;;;;;;;;;;6232260;23;20008;-89
2023/01/07 03:02:12;;;;;;;3.30;2.30;;;;;;;;;;6238025;23;20005;-89
2023/01/07 03:04:47;;;;;;;4.80;2.33;;;;;;;;;;6211882;23;20020;-89
2023/01/07 03:07:13;;;;;;;3.33;2.13;;;;;;;;;;6196071;23;20009;-88
2023/01/07 03:09:39;;;;;;;4.00;2.30;;;;;;;;;;6198322;23;20422;-88
2023/01/07 03:12:30;;;;;;;3.60;2.38;;;;;;;;;;6193813;23;20004;-89
2023/01/07 03:15:02;;;;;;;3.92;2.45;;;;;;;;;;6199695;23;20015;-88
2023/01/07 03:17:31;;;;;;;4.15;2.47;;;;;;;;;;6195225;23;20000;-89
2023/01/07 03:22:54;;;;;;;3.67;2.10;;;;;;;;;;6254356;22;20047;-89
2023/01/07 03:25:21;;;;;;;3.95;2.47;;;;;;;;;;6227492;23;20018;-87
2023/01/07 03:27:48;;;;;;;3.30;2.15;;;;;;;;;;6203560;23;20052;-88
2023/01/07 03:30:21;;;;;;;3.35;2.10;;;;;;;;;;6192413;23;20044;-89
2023/01/07 03:32:54;;;;;;;2.90;1.77;;;;;;;;;;6200680;23;20020;-88
2023/01/07 03:35:21;;;;;;;2.53;1.67;;;;;;;;;;6194948;23;20016;-89
2023/01/07 03:37:48;;;;;;;3.45;1.77;;;;;;;;;;6196538;23;20426;-88
2023/01/07 03:40:16;;;;;;;3.15;1.92;;;;;;;;;;6203805;23;20054;-88
2023/01/07 03:42:47;;;;;;;2.90;1.90;;;;;;;;;;6195810;23;20074;-87
2023/01/07 03:45:23;;;;;;;3.45;1.80;;;;;;;;;;6218968;23;20026;-90
2023/01/07 03:47:54;;;;;;;4.88;2.63;;;;;;;;;;6193858;23;20377;-89
2023/01/07 03:50:26;;;;;;;6.97;3.90;;;;;;;;;;6198764;23;20019;-89
2023/01/07 03:52:55;;;;;;;6.07;3.70;;;;;;;;;;6197664;23;20016;-88
2023/01/07 03:55:21;;;;;;;6.03;3.60;;;;;;;;;;6191927;23;20004;-90
2023/01/07 03:57:47;;;;;;;6.40;3.63;;;;;;;;;;6192467;23;20013;-89
2023/01/07 04:00:14;;;;;;;5.60;2.80;;;;;;;;;;6196301;23;20019;-90
2023/01/07 04:02:46;;;;;;;4.75;2.88;;;;;;;;;;6169700;23;20068;-89
2023/01/07 04:05:12;;;;;;;5.43;2.80;;;;;;;;;;6198326;23;19992;-90
2023/01/07 04:07:39;;;;;;;5.88;3.00;;;;;;;;;;6197870;23;20035;-89
2023/01/07 04:10:11;;;;;;;5.32;3.67;;;;;;;;;;6180871;22;20035;-89
2023/01/07 04:15:41;;;;;;;8.98;4.75;;;;;;;;;;6200661;23;20075;-86
2023/01/07 04:18:08;;;;;;;9.57;5.07;;;;;;;;;;6198021;23;20027;-87
2023/01/07 04:20:34;;;;;;;8.13;5.18;;;;;;;;;;6197378;23;20147;-89
2023/01/07 04:23:35;;;;;;;9.15;5.68;;;;;;;;;;6193275;23;20015;-89
2023/01/07 04:26:02;;;;;;;7.78;5.10;;;;;;;;;;6104901;23;20018;-87
2023/01/07 04:28:37;;;;;;;7.53;4.93;;;;;;;;;;6185202;23;19995;-91
2023/01/07 04:31:06;;;;;;;10.82;5.97;;;;;;;;;;6200631;23;20008;-87
2023/01/07 04:33:34;;;;;;;8.52;5.70;;;;;;;;;;6196285;23;20077;-87
2023/01/07 04:36:16;;;;;;;10.07;6.82;;;;;;;;;;6196981;23;20634;-87
2023/01/07 04:38:48;;;;;;;10.23;6.72;;;;;;;;;;6196207;23;20035;-87
2023/01/07 04:41:17;;;;;;;9.02;6.22;;;;;;;;;;6196883;23;20035;-87
2023/01/07 04:43:43;;;;;;;9.88;6.00;;;;;;;;;;6195911;23;20019;-90
2023/01/07 04:46:09;;;;;;;9.60;6.47;;;;;;;;;;6198352;23;20044;-87
2023/01/07 04:48:36;;;;;;;11.70;6.72;;;;;;;;;;6227316;23;20417;-88
2023/01/07 04:56:16;;;;;;;14.30;8.63;;;;;;;;;;6196785;23;1357939;-88
2023/01/07 04:58:46;;;;;;;11.65;8.23;;;;;;;;;;6211417;22;20100;-88
2023/01/07 05:01:12;;;;;;;14.90;9.07;;;;;;;;;;6204067;23;20005;-88
2023/01/07 05:03:39;;;;;;;12.40;7.07;;;;;;;;;;6201257;23;20295;-87
2023/01/07 05:06:05;;;;;;;12.23;7.90;;;;;;;;;;6200891;22;20009;-88
2023/01/07 05:08:31;;;;;;;12.18;7.72;;;;;;;;;;6200741;23;20012;-88
2023/01/07 05:11:09;;;;;;;10.82;7.10;;;;;;;;;;6193504;23;20124;-89
2023/01/07 05:13:54;;;;;;;11.77;9.20;;;;;;;;;;6201751;23;20079;-88
2023/01/07 05:16:38;;;;;;;11.35;7.85;;;;;;;;;;6211685;22;20001;-90
2023/01/07 05:25:04;;;;;;;10.32;6.88;;;;;;;;;;6242089;22;20099;-90
2023/01/07 05:27:30;;;;;;;12.48;8.10;;;;;;;;;;6225732;23;20008;-89
2023/01/07 05:29:56;;;;;;;11.77;8.07;;;;;;;;;;6223064;23;20015;-89
2023/01/07 05:32:22;;;;;;;11.45;7.55;;;;;;;;;;6222570;23;20062;-88
2023/01/07 05:34:49;;;;;;;10.85;7.97;;;;;;;;;;6248705;23;20056;-89
2023/01/07 05:37:15;;;;;;;10.45;7.47;;;;;;;;;;6221748;23;20004;-90
2023/01/07 05:39:41;;;;;;;11.52;8.00;;;;;;;;;;6221731;23;20039;-88
2023/01/07 05:42:07;;;;;;;10.23;7.57;;;;;;;;;;6222932;23;20083;-89
2023/01/07 05:44:33;;;;;;;9.90;7.18;;;;;;;;;;6221675;23;20091;-90
2023/01/07 05:46:59;;;;;;;12.13;8.43;;;;;;;;;;6222297;23;20015;-90
2023/01/07 05:49:25;;;;;;;22.98;15.65;;;;;;;;;;6221830;23;20035;-89
2023/01/07 05:51:51;;;;;;;18.02;11.85;;;;;;;;;;6224480;23;20004;-89
2023/01/07 05:54:17;;;;;;;14.20;8.88;;;;;;;;;;6198175;23;20091;-89
2023/01/07 05:56:45;;;;;;;14.30;8.82;;;;;;;;;;6223205;23;20425;-88
2023/01/07 05:59:14;;;;;;;16.05;9.45;;;;;;;;;;6250657;23;20011;-89
2023/01/07 06:01:40;;;;;;;16.98;10.90;;;;;;;;;;6222059;23;20007;-90
2023/01/07 06:04:07;;;;;;;18.88;11.52;;;;;;;;;;6221618;23;20005;-90
2023/01/07 06:06:33;;;;;;;20.50;11.30;;;;;;;;;;6224024;23;20094;-89
2023/01/07 06:08:59;;;;;;;19.90;12.02;;;;;;;;;;6223761;23;19997;-88
2023/01/07 06:11:25;;;;;;;16.30;11.05;;;;;;;;;;6223220;23;20014;-89
2023/01/07 06:13:51;;;;;;;18.60;12.02;;;;;;;;;;6221931;23;20004;-90
2023/01/07 06:16:25;;;;;;;23.50;12.73;;;;;;;;;;6221789;23;20007;-86
2023/01/07 06:18:51;;;;;;;18.95;11.77;;;;;;;;;;6221708;23;20482;-89
2023/01/07 06:21:17;;;;;;;17.52;10.45;;;;;;;;;;6222047;23;20003;-86
2023/01/07 06:23:43;;;;;;;17.85;10.25;;;;;;;;;;6212777;23;20043;-87
2023/01/07 06:26:10;;;;;;;18.45;9.43;;;;;;;;;;6218822;23;20017;-87
2023/01/07 06:28:53;;;;;;;15.57;8.32;;;;;;;;;;6190783;23;20004;-87
2023/01/07 06:31:19;;;;;;;14.30;8.55;;;;;;;;;;6191889;23;20009;-89
2023/01/07 06:33:45;;;;;;;12.85;7.72;;;;;;;;;;6192023;23;20005;-88
2023/01/07 06:36:12;;;;;;;11.32;7.28;;;;;;;;;;6194793;23;20015;-90
2023/01/07 06:38:38;;;;;;;12.02;7.63;;;;;;;;;;6195037;23;20039;-89
2023/01/07 06:41:04;;;;;;;10.80;6.40;;;;;;;;;;6194414;23;20330;-90
2023/01/07 06:43:30;;;;;;;8.65;6.35;;;;;;;;;;6211045;23;19993;-89
2023/01/07 06:45:56;;;;;;;8.40;5.20;;;;;;;;;;6201660;23;20040;-88
2023/01/07 06:48:24;;;;;;;7.93;4.80;;;;;;;;;;6192474;23;20004;-89
2023/01/07 06:50:50;;;;;;;7.63;4.80;;;;;;;;;;6191619;23;20009;-88
2023/01/07 06:53:16;;;;;;;8.80;5.10;;;;;;;;;;6194567;23;20020;-89
2023/01/07 06:55:52;;;;;;;6.70;4.00;;;;;;;;;;6200918;23;20042;-89
2023/01/07 06:58:18;;;;;;;7.22;4.60;;;;;;;;;;6202852;23;20083;-88
2023/01/07 07:00:47;;;;;;;7.18;4.78;;;;;;;;;;6214708;23;20008;-90
2023/01/07 07:03:22;;;;;;;8.30;4.70;;;;;;;;;;6205267;23;20016;-90
2023/01/07 07:06:01;;;;;;;7.07;5.20;;;;;;;;;;6208806;22;20507;-89
2023/01/07 07:08:27;;;;;;;7.07;4.85;;;;;;;;;;6249796;22;20015;-90
2023/01/07 07:10:53;;;;;;;6.88;4.40;;;;;;;;;;6251763;22;19991;-90
2023/01/07 07:13:19;;;;;;;8.40;4.72;;;;;;;;;;6249307;22;20011;-88
2023/01/07 07:15:45;;;;;;;7.22;4.60;;;;;;;;;;6257945;22;20000;-88
2023/01/07 07:18:11;;;;;;;6.95;4.47;;;;;;;;;;6260906;22;20010;-89
2023/01/07 07:20:37;;;;;;;8.73;5.20;;;;;;;;;;6251406;22;20000;-89
2023/01/07 07:23:03;;;;;;;8.75;4.70;;;;;;;;;;6252804;22;20045;-90
2023/01/07 07:25:30;;;;;;;9.13;4.53;;;;;;;;;;6287954;22;20020;-90
2023/01/07 07:27:58;;;;;;;9.32;5.00;;;;;;;;;;6263269;22;20003;-88
2023/01/07 07:30:34;;;;;;;11.13;5.00;;;;;;;;;;6253975;22;20007;-90
2023/01/07 07:33:03;;;;;;;8.75;3.75;;;;;;;;;;6255556;22;19999;-89
2023/01/07 07:35:35;;;;;;;10.55;5.00;;;;;;;;;;6253142;22;20035;-91
2023/01/07 07:38:02;;;;;;;10.25;6.78;;;;;;;;;;6252333;22;20027;-88
2023/01/07 07:40:28;;;;;;;7.85;3.63;;;;;;;;;;6252576;22;20045;-86
2023/01/07 07:42:59;;;;;;;6.32;3.67;;;;;;;;;;6253291;22;19999;-89
2023/01/07 07:45:25;;;;;;;16.25;9.55;;;;;;;;;;6280263;22;20003;-92
2023/01/07 07:48:20;;;;;;;28.48;15.38;;;;;;;;;;6256210;22;20011;-90
2023/01/07 07:50:50;;;;;;;28.42;15.45;;;;;;;;;;6251504;22;19996;-87
2023/01/07 07:53:17;;;;;;;24.38;13.88;;;;;;;;;;6227604;22;20464;-89
2023/01/07 07:55:45;;;;;;;13.20;8.95;;;;;;;;;;6254186;22;20007;-91
2023/01/07 07:58:12;;;;;;;14.32;8.40;;;;;;;;;;6252188;22;20547;-87
2023/01/07 08:00:41;;;;;;;15.35;8.82;;;;;;;;;;6253035;22;20455;-94
2023/01/07 08:03:14;;;;;;;17.65;10.30;;;;;;;;;;6225207;22;20011;-88
2023/01/07 08:05:46;;;;;;;25.90;16.05;;;;;;;;;;6249586;22;20016;-88
2023/01/07 08:08:13;;;;;;;21.08;12.35;;;;;;;;;;6251283;22;20014;-87
2023/01/07 08:10:41;;;;;;;14.93;9.20;;;;;;;;;;6279750;22;20000;-86
2023/01/07 08:13:14;;;;;;;15.10;8.75;;;;;;;;;;6277450;22;20030;-89
2023/01/07 08:15:43;;;;;;;10.75;5.72;;;;;;;;;;6254422;22;20049;-88
2023/01/07 08:18:12;;;;;;;9.90;6.00;;;;;;;;;;6252227;22;20433;-92
2023/01/07 08:20:40;;;;;;;12.52;6.70;;;;;;;;;;6259021;22;20004;-91
2023/01/07 08:23:07;;;;;;;13.55;9.10;;;;;;;;;;6254999;22;20405;-90
2023/01/07 08:25:33;;;;;;;24.02;14.43;;;;;;;;;;6254039;22;20025;-89
2023/01/07 08:28:03;;;;;;;16.98;11.52;;;;;;;;;;6256046;22;20003;-86
2023/01/07 08:30:29;;;;;;;16.02;10.05;;;;;;;;;;6251472;22;20015;-87
2023/01/07 08:33:00;;;;;;;14.05;9.25;;;;;;;;;;6250382;22;20018;-86
2023/01/07 08:38:45;;;;;;;28.23;13.52;;;;;;;;;;6247117;22;20080;-86
2023/01/07 08:41:11;;;;;;;14.27;8.50;;;;;;;;;;6224995;23;20004;-89
2023/01/07 08:43:43;;;;;;;7.82;5.70;;;;;;;;;;6227228;23;20010;-90
2023/01/07 08:46:10;;;;;;;7.45;5.60;;;;;;;;;;6224622;23;20023;-88
2023/01/07 08:48:42;;;;;;;7.63;5.75;;;;;;;;;;6231399;23;19985;-89
2023/01/07 08:51:09;;;;;;;9.25;5.38;;;;;;;;;;6223566;23;20429;-88
2023/01/07 08:53:35;;;;;;;7.80;4.90;;;;;;;;;;6224666;23;20011;-85
2023/01/07 08:56:02;;;;;;;7.32;4.97;;;;;;;;;;6246470;23;20008;-88
2023/01/07 08:58:28;;;;;;;7.10;5.28;;;;;;;;;;6222044;23;20008;-88
2023/01/07 09:00:54;;;;;;;7.57;4.70;;;;;;;;;;6221828;23;20016;-88
2023/01/07 09:03:20;;;;;;;7.85;5.10;;;;;;;;;;6219280;23;20004;-89
2023/01/07 09:05:56;;;;;;;6.50;4.95;;;;;;;;;;6245558;23;20012;-89
2023/01/07 09:08:23;;;;;;;7.97;4.97;;;;;;;;;;6224758;23;20020;-90
2023/01/07 09:10:55;;;;;;;6.85;4.90;;;;;;;;;;6223008;23;20008;-89
2023/01/07 09:13:21;;;;;;;7.35;5.97;;;;;;;;;;6208904;22;20043;-84
2023/01/07 09:15:47;;;;;;;6.72;5.40;;;;;;;;;;6258035;22;20078;-89
2023/01/07 09:18:13;;;;;;;7.28;6.30;;;;;;;;;;6221701;23;20000;-90
2023/01/07 09:20:39;;;;;;;7.50;6.32;;;;;;;;;;6245686;23;20004;-88
2023/01/07 09:23:08;;;;;;;8.60;7.65;;;;;;;;;;6219819;23;20008;-88
2023/01/07 09:25:35;;;;;;;12.55;8.80;;;;;;;;;;6221911;23;20008;-86
2023/01/07 09:28:01;;;;;;;14.63;9.48;;;;;;;;;;6222634;23;20000;-89
2023/01/07 09:30:27;;;;;;;16.27;10.05;;;;;;;;;;6224006;22;20020;-89
2023/01/07 09:33:03;;;;;;;11.23;9.30;;;;;;;;;;6222160;23;20355;-88
2023/01/07 09:35:29;;;;;;;13.73;10.88;;;;;;;;;;6222527;23;20008;-87
2023/01/07 09:37:55;;;;;;;13.80;9.05;;;;;;;;;;6225774;23;20334;-88
2023/01/07 09:40:36;;;;;;;9.00;7.70;;;;;;;;;;6220440;23;20023;-89
2023/01/07 09:43:06;;;;;;;9.15;6.88;;;;;;;;;;6225157;23;20012;-87
2023/01/07 09:45:46;;;;;;;8.30;6.90;;;;;;;;;;6226226;23;20071;-87
2023/01/07 09:48:17;;;;;;;10.05;7.00;;;;;;;;;;6230837;22;20001;-88
2023/01/07 09:51:05;;;;;;;8.20;7.00;;;;;;;;;;6225153;22;20008;-88
2023/01/07 09:53:32;;;;;;;10.13;7.20;;;;;;;;;;6224125;23;20004;-87
2023/01/07 09:55:59;;;;;;;9.23;7.00;;;;;;;;;;6223125;23;20381;-88
2023/01/07 09:58:32;;;;;;;8.20;6.70;;;;;;;;;;6222875;23;20380;-88
2023/01/07 10:01:30;;;;;;;8.70;7.20;;;;;;;;;;6221662;23;20425;-89
2023/01/07 10:03:56;;;;;;;8.95;7.63;;;;;;;;;;6223061;23;20145;-87
2023/01/07 10:06:22;;;;;;;8.57;7.00;;;;;;;;;;6228953;22;20079;-88
2023/01/07 10:08:48;;;;;;;10.18;7.85;;;;;;;;;;6225806;23;20036;-88
2023/01/07 10:11:36;;;;;;;8.48;7.47;;;;;;;;;;6226765;23;20372;-89
2023/01/07 10:14:20;;;;;;;11.88;8.20;;;;;;;;;;6222954;23;20008;-90
2023/01/07 10:17:00;;;;;;;9.85;6.60;;;;;;;;;;6224764;23;20000;-89
2023/01/07 10:19:29;;;;;;;9.55;7.57;;;;;;;;;;6221740;22;20034;-90
2023/01/07 10:22:01;;;;;;;10.13;7.82;;;;;;;;;;6226706;23;20001;-89
2023/01/07 10:24:32;;;;;;;9.13;7.70;;;;;;;;;;6229543;23;19996;-89
2023/01/07 10:27:01;;;;;;;9.65;8.43;;;;;;;;;;6224262;23;20012;-89
2023/01/07 10:29:31;;;;;;;9.93;8.18;;;;;;;;;;6239204;22;20017;-88
2023/01/07 10:31:59;;;;;;;11.25;8.75;;;;;;;;;;6183716;23;20055;-87
2023/01/07 10:34:30;;;;;;;10.50;9.05;;;;;;;;;;6164940;23;20001;-87
2023/01/07 10:37:12;;;;;;;9.50;8.00;;;;;;;;;;6162933;23;20001;-88
2023/01/07 10:39:38;;;;;;;12.35;9.07;;;;;;;;;;6168695;23;20036;-89
2023/01/07 10:42:20;;;;;;;13.18;11.15;;;;;;;;;;6174473;23;20004;-87
2023/01/07 10:44:55;;;;;;;12.23;9.73;;;;;;;;;;6171914;23;20005;-89
2023/01/07 10:48:03;;;;;;;10.70;8.98;;;;;;;;;;6171886;23;20005;-92
2023/01/07 10:53:44;;;;;;;14.65;12.13;;;;;;;;;;6192932;22;20035;-95
2023/01/07 10:59:38;;;;;;;16.63;12.98;;;;;;;;;;6258543;23;20060;-96
2023/01/07 11:02:14;;;;;;;17.42;13.98;;;;;;;;;;6144636;23;20012;-93
2023/01/07 11:04:46;;;;;;;16.52;11.38;;;;;;;;;;6169123;23;20467;-93
2023/01/07 11:23:37;;;;;;;18.48;14.70;;;;;;;;;;6286074;22;20054;-94
2023/01/07 11:26:22;;;;;;;22.80;16.23;;;;;;;;;;6264283;22;20099;-96
2023/01/07 11:32:04;;;;;;;20.90;16.45;;;;;;;;;;6197795;23;20984;-93
2023/01/07 11:34:55;;;;;;;20.65;15.60;;;;;;;;;;6259129;22;20015;-94
2023/01/07 11:48:37;;;;;;;20.63;16.13;;;;;;;;;;6243563;22;20770;-90
2023/01/07 11:51:21;;;;;;;23.88;18.17;;;;;;;;;;6224763;23;20008;-89
2023/01/07 11:54:17;;;;;;;22.38;16.38;;;;;;;;;;6238445;23;20002;-89
2023/01/07 11:56:43;;;;;;;19.40;15.60;;;;;;;;;;6135508;23;20040;-88
2023/01/07 11:59:13;;;;;;;22.23;17.42;;;;;;;;;;6219771;23;20018;-91
2023/01/07 12:02:13;;;;;;;19.15;15.75;;;;;;;;;;6217801;23;20000;-89
2023/01/07 12:05:15;;;;;;;21.48;16.48;;;;;;;;;;6223711;23;20004;-94
2023/01/07 12:07:51;;;;;;;21.75;17.15;;;;;;;;;;6220355;23;20012;-90
2023/01/07 12:10:37;;;;;;;19.42;14.70;;;;;;;;;;6221044;23;20031;-90
2023/01/07 12:13:16;;;;;;;18.60;14.52;;;;;;;;;;6222693;23;20008;-91
2023/01/07 12:15:57;;;;;;;18.02;15.23;;;;;;;;;;6223326;23;20009;-91
2023/01/07 12:18:42;;;;;;;17.95;15.55;;;;;;;;;;6226017;23;20449;-90
2023/01/07 12:21:08;;;;;;;20.15;15.13;;;;;;;;;;6223230;23;20026;-88
2023/01/07 12:23:53;;;;;;;18.05;13.85;;;;;;;;;;6237367;22;20019;-92
2023/01/07 12:26:24;;;;;;;22.02;16.20;;;;;;;;;;6232983;23;20020;-89
2023/01/07 12:29:07;;;;;;;21.40;16.75;;;;;;;;;;6221228;23;20011;-90
2023/01/07 12:31:55;;;;;;;19.77;14.43;;;;;;;;;;6221400;23;20015;-88
2023/01/07 12:34:54;;;;;;;28.02;21.58;;;;;;;;;;6262280;23;19988;-92
2023/01/07 12:37:55;;;;;;;18.40;14.90;;;;;;;;;;6260242;23;20004;-94
2023/01/07 12:40:42;;;;;;;19.63;15.43;;;;;;;;;;6224755;23;20012;-93
2023/01/07 12:52:21;;;;;;;16.95;12.15;;;;;;;;;;6284956;22;20349;-90
2023/01/07 12:54:47;;;;;;;19.73;15.65;;;;;;;;;;6252624;22;20038;-89
2023/01/07 12:57:23;;;;;;;19.25;14.93;;;;;;;;;;6254290;22;20003;-89
2023/01/07 13:00:07;;;;;;;21.73;15.15;;;;;;;;;;6253800;22;20008;-90
2023/01/07 13:06:18;;;;;;;17.55;13.73;;;;;;;;;;6157237;23;20025;-91
2023/01/07 13:09:12;;;;;;;15.80;12.93;;;;;;;;;;6185084;22;20012;-88
2023/01/07 13:14:47;;;;;;;16.27;12.68;;;;;;;;;;6284594;22;20077;-90
2023/01/07 13:17:43;;;;;;;17.30;12.77;;;;;;;;;;6252001;22;20011;-92
2023/01/07 13:20:13;;;;;;;19.83;13.82;;;;;;;;;;6208751;22;20106;-91
2023/01/07 13:22:40;;;;;;;20.27;15.02;;;;;;;;;;6252358;22;19999;-91
2023/01/07 13:25:25;;;;;;;17.60;14.05;;;;;;;;;;6257295;22;20010;-94
2023/01/07 13:28:00;;;;;;;18.23;14.02;;;;;;;;;;6251232;22;20043;-90
2023/01/07 13:33:16;;;;;;;19.90;16.63;;;;;;;;;;6250949;22;20333;-88
2023/01/07 13:36:02;;;;;;;25.77;18.70;;;;;;;;;;6224703;23;20008;-89
2023/01/07 13:38:35;;;;;;;14.93;11.98;;;;;;;;;;6226706;23;20378;-91
2023/01/07 13:41:12;;;;;;;16.65;11.75;;;;;;;;;;6228362;23;20038;-89
2023/01/07 13:44:07;;;;;;;17.42;13.80;;;;;;;;;;6228359;23;20009;-89
2023/01/07 13:49:31;;;;;;;22.95;17.25;;;;;;;;;;6240695;22;20472;-88
2023/01/07 13:52:16;;;;;;;25.23;18.63;;;;;;;;;;6229885;23;20063;-88
2023/01/07 13:55:07;;;;;;;25.75;19.08;;;;;;;;;;6225516;23;20087;-89
2023/01/07 13:57:36;;;;;;;25.30;18.02;;;;;;;;;;6224801;23;20010;-89
2023/01/07 14:00:04;;;;;;;26.45;19.27;;;;;;;;;;6222758;23;20000;-88
2023/01/07 14:02:50;;;;;;;23.02;17.48;;;;;;;;;;6220730;23;20008;-88
2023/01/07 14:05:16;;;;;;;24.00;17.80;;;;;;;;;;6159967;23;20478;-91
2023/01/07 14:07:53;;;;;;;26.52;18.10;;;;;;;;;;6208570;23;20000;-89
2023/01/07 14:10:25;;;;;;;23.13;17.38;;;;;;;;;;6224223;23;20005;-88
2023/01/07 14:13:01;;;;;;;23.08;16.80;;;;;;;;;;6222591;23;20004;-90
2023/01/07 14:15:27;;;;;;;21.92;17.90;;;;;;;;;;6224370;23;20012;-89
2023/01/07 14:18:12;;;;;;;22.67;17.65;;;;;;;;;;6235276;23;19996;-91
2023/01/07 14:20:44;;;;;;;22.27;17.42;;;;;;;;;;6233158;23;20337;-90
2023/01/07 14:23:25;;;;;;;22.27;16.00;;;;;;;;;;6222610;23;20476;-89
2023/01/07 14:25:54;;;;;;;27.25;20.02;;;;;;;;;;6222218;23;20012;-89
2023/01/07 14:29:08;;;;;;;22.92;17.13;;;;;;;;;;6223703;23;20054;-93
2023/01/07 14:31:41;;;;;;;23.20;17.70;;;;;;;;;;6226307;23;20056;-89
2023/01/07 14:34:36;;;;;;;21.77;17.23;;;;;;;;;;6240464;23;20003;-92
2023/01/07 14:37:20;;;;;;;22.75;16.88;;;;;;;;;;6225542;23;20034;-90
2023/01/07 14:39:46;;;;;;;23.45;16.30;;;;;;;;;;6225301;23;20008;-89
2023/01/07 14:42:29;;;;;;;21.52;16.50;;;;;;;;;;6224967;23;20004;-93
2023/01/07 14:45:01;;;;;;;22.50;17.17;;;;;;;;;;6226248;23;20018;-90
2023/01/07 14:47:46;;;;;;;27.08;19.85;;;;;;;;;;6249093;23;20031;-91
2023/01/07 14:50:31;;;;;;;24.75;17.15;;;;;;;;;;6227320;23;20044;-89
2023/01/07 14:53:17;;;;;;;28.17;17.90;;;;;;;;;;6252507;23;20010;-90
2023/01/07 14:55:45;;;;;;;25.23;16.75;;;;;;;;;;6224034;23;20000;-91
2023/01/07 14:58:24;;;;;;;24.20;17.80;;;;;;;;;;6223508;23;20426;-95
2023/01/07 15:01:02;;;;;;;24.80;18.67;;;;;;;;;;6225623;23;20091;-94
2023/01/07 15:03:54;;;;;;;26.25;19.75;;;;;;;;;;6224496;23;20012;-91
2023/01/07 15:07:03;;;;;;;25.08;19.00;;;;;;;;;;6251450;23;20457;-90
2023/01/07 15:18:25;;;;;;;23.25;18.98;;;;;;;;;;6249053;23;20106;-92
2023/01/07 15:21:10;;;;;;;30.98;22.75;;;;;;;;;;6222322;23;20049;-91
2023/01/07 15:23:55;;;;;;;28.70;20.25;;;;;;;;;;6227662;23;20031;-87
2023/01/07 15:26:21;;;;;;;27.80;21.35;;;;;;;;;;6235797;23;20104;-88
2023/01/07 15:29:01;;;;;;;26.67;20.40;;;;;;;;;;6221914;23;20030;-88
2023/01/07 15:31:31;;;;;;;28.08;20.98;;;;;;;;;;6221200;23;20004;-89
2023/01/07 15:34:09;;;;;;;29.48;22.85;;;;;;;;;;6220858;23;20004;-88
2023/01/07 15:36:43;;;;;;;30.38;21.00;;;;;;;;;;6220449;23;20087;-89
2023/01/07 15:39:09;;;;;;;;;;;;;;;;;;6216311;23;20036;-88
2023/01/07 15:47:55;;;;;;;36.13;25.20;;;;;;;;;;6225842;22;20472;-87
2023/01/07 15:50:23;;;;;;;36.95;23.83;;;;;;;;;;6220328;23;20004;-88
2023/01/07 15:52:55;;;;;;;32.33;23.90;;;;;;;;;;6220455;23;20125;-89
2023/01/07 15:55:26;;;;;;;31.63;24.40;;;;;;;;;;6221253;23;20009;-88
2023/01/07 15:57:56;;;;;;;30.85;23.10;;;;;;;;;;6220089;23;20032;-88
2023/01/07 16:00:23;;;;;;;32.00;24.20;;;;;;;;;;6220725;23;20012;-89
2023/01/07 16:02:49;;;;;;;34.40;24.35;;;;;;;;;;6220326;23;20085;-88
2023/01/07 16:05:20;;;;;;;33.50;23.33;;;;;;;;;;6220170;23;20496;-89
2023/01/07 16:07:54;;;;;;;33.50;23.75;;;;;;;;;;6221477;23;20091;-92
2023/01/07 16:10:26;;;;;;;39.03;25.42;;;;;;;;;;6222271;23;20003;-90
2023/01/07 16:12:56;;;;;;;33.92;25.38;;;;;;;;;;6237332;22;20047;-89
2023/01/07 16:15:42;;;;;;;35.40;24.60;;;;;;;;;;6227878;23;20012;-89
2023/01/07 16:18:14;;;;;;;38.67;27.13;;;;;;;;;;6197191;23;20067;-92
2023/01/07 16:20:59;;;;;;;36.75;27.98;;;;;;;;;;6194521;23;20032;-94
2023/01/07 16:23:56;;;;;;;46.30;33.70;;;;;;;;;;6195614;23;20418;-92
2023/01/07 16:26:45;;;;;;;44.78;31.48;;;;;;;;;;6155008;23;20013;-91
2023/01/07 16:29:26;;;;;;;40.00;28.52;;;;;;;;;;6133421;23;20002;-92
2023/01/07 16:31:53;;;;;;;35.90;25.33;;;;;;;;;;6131600;23;20009;-88
2023/01/07 16:34:24;;;;;;;37.65;26.55;;;;;;;;;;6132978;23;20009;-89
2023/01/07 16:36:58;;;;;;;42.70;27.98;;;;;;;;;;6132953;23;20148;-90
2023/01/07 16:39:26;;;;;;;38.55;27.45;;;;;;;;;;6130769;23;20052;-89
2023/01/07 16:44:42;;;;;;;43.40;31.88;;;;;;;;;;6157193;23;20048;-87
2023/01/07 16:47:27;;;;;;;45.33;32.53;;;;;;;;;;6135479;23;20068;-88
2023/01/07 16:52:57;;;;;;;44.33;31.27;;;;;;;;;;6157320;23;20012;-88
2023/01/07 16:55:41;;;;;;;46.67;31.70;;;;;;;;;;6130448;23;20005;-91